createdAt,value
2018-07-31T00:01:09.710Z,73.90
2018-07-31T00:03:41.174Z,73.90
2018-07-31T00:06:18.081Z,73.90
2018-07-31T00:08:49.972Z,73.90
2018-07-31T00:11:21.272Z,73.80
2018-07-31T00:13:52.748Z,74.70
2018-07-31T00:18:54.304Z,73.90
2018-07-31T00:21:25.654Z,74.00
2018-07-31T00:26:27.547Z,74.10
2018-07-31T00:31:29.189Z,73.50
2018-07-31T00:34:00.598Z,73.50
2018-07-31T00:36:31.968Z,73.50
2018-07-31T00:39:03.180Z,74.10
2018-07-31T00:41:34.205Z,73.30
2018-07-31T00:44:05.576Z,73.30
2018-07-31T00:46:37.230Z,73.30
2018-07-31T00:49:08.490Z,73.30
2018-07-31T00:51:39.833Z,73.70
2018-07-31T00:54:10.779Z,73.20
2018-07-31T00:56:42.096Z,73.20
2018-07-31T00:59:13.060Z,72.70
2018-07-31T01:01:44.134Z,72.60
2018-07-31T01:04:15.730Z,72.60
2018-07-31T01:06:47.445Z,72.50
2018-07-31T01:09:18.735Z,72.60
2018-07-31T01:11:50.106Z,72.20
2018-07-31T01:14:22.911Z,72.10
2018-07-31T01:16:54.887Z,73.00
2018-07-31T01:19:26.404Z,73.00
2018-07-31T01:21:58.105Z,73.20
2018-07-31T01:24:29.398Z,73.00
2018-07-31T01:27:00.700Z,72.70
2018-07-31T01:32:02.344Z,73.00
2018-07-31T01:34:33.633Z,73.00
2018-07-31T01:37:04.844Z,73.00
2018-07-31T01:39:36.810Z,72.50
2018-07-31T01:44:38.888Z,72.80
2018-07-31T01:47:10.232Z,72.90
2018-07-31T01:49:41.218Z,72.80
2018-07-31T01:52:12.381Z,73.30
2018-07-31T01:54:43.299Z,73.70
2018-07-31T01:57:14.388Z,73.60
2018-07-31T01:59:45.687Z,74.10
2018-07-31T02:02:16.983Z,73.80
2018-07-31T02:09:49.067Z,73.50
2018-07-31T02:12:20.146Z,73.70
2018-07-31T02:14:51.052Z,74.30
2018-07-31T02:17:22.178Z,74.20
2018-07-31T02:19:53.330Z,74.10
2018-07-31T02:22:24.607Z,74.00
2018-07-31T02:27:25.785Z,74.70
2018-07-31T02:30:01.608Z,74.60
2018-07-31T02:37:33.386Z,75.70
2018-07-31T02:40:04.651Z,76.20
2018-07-31T02:45:10.756Z,75.90
2018-07-31T02:47:42.246Z,75.70
2018-07-31T02:50:13.696Z,76.20
2018-07-31T02:52:45.070Z,76.10
2018-07-31T02:58:26.272Z,77.20
2018-07-31T03:00:57.579Z,77.40
2018-07-31T03:03:28.933Z,77.30
2018-07-31T03:05:59.999Z,77.50
2018-07-31T03:08:31.475Z,77.10
2018-07-31T03:13:33.369Z,77.20
2018-07-31T03:16:04.726Z,77.50
2018-07-31T03:18:36.109Z,77.40
2018-07-31T03:21:07.403Z,77.20
2018-07-31T03:23:39.684Z,77.60
2018-07-31T03:26:27.221Z,78.70
2018-07-31T03:28:58.485Z,78.90
2018-07-31T03:31:29.908Z,79.00
2018-07-31T03:34:01.292Z,79.50
2018-07-31T03:36:32.569Z,80.20
2018-07-31T03:39:04.165Z,79.50
2018-07-31T03:41:35.497Z,79.50
2018-07-31T03:44:07.239Z,79.00
2018-07-31T03:46:38.502Z,79.30
2018-07-31T03:49:22.710Z,79.40
2018-07-31T03:54:24.579Z,79.40
2018-07-31T03:59:26.035Z,79.50
2018-07-31T04:01:57.429Z,80.20
2018-07-31T04:04:28.831Z,80.20
2018-07-31T04:07:00.489Z,80.20
2018-07-31T04:09:31.858Z,80.10
2018-07-31T04:12:03.694Z,79.50
2018-07-31T04:17:05.461Z,79.50
2018-07-31T04:19:36.571Z,79.70
2018-07-31T04:22:07.849Z,79.80
2018-07-31T04:24:39.565Z,79.40
2018-07-31T04:27:10.895Z,79.40
2018-07-31T04:29:42.517Z,78.70
2018-07-31T04:32:13.729Z,78.30
2018-07-31T04:34:44.953Z,78.40
2018-07-31T04:37:16.217Z,78.40
2018-07-31T04:39:47.535Z,78.20
2018-07-31T04:42:19.032Z,77.80
2018-07-31T04:44:50.381Z,77.20
2018-07-31T04:47:21.818Z,76.80
2018-07-31T04:49:52.975Z,76.40
2018-07-31T04:52:24.412Z,75.50
2018-07-31T04:54:55.809Z,73.40
2018-07-31T04:57:27.193Z,73.00
2018-07-31T04:59:58.801Z,72.60
2018-07-31T05:02:29.986Z,71.80
2018-07-31T05:05:01.318Z,73.00
2018-07-31T05:07:32.714Z,72.90
2018-07-31T05:10:03.926Z,75.30
2018-07-31T05:12:35.163Z,73.80
2018-07-31T05:15:06.880Z,70.40
2018-07-31T05:17:39.211Z,69.60
2018-07-31T05:20:11.778Z,69.70
2018-07-31T05:22:43.269Z,70.60
2018-07-31T05:25:14.649Z,71.30
2018-07-31T05:27:46.036Z,72.00
2018-07-31T05:30:17.488Z,72.80
2018-07-31T05:32:49.174Z,75.10
2018-07-31T05:35:20.677Z,75.50
2018-07-31T05:37:51.902Z,76.30
2018-07-31T05:40:23.234Z,76.60
2018-07-31T05:42:55.014Z,75.80
2018-07-31T05:45:26.318Z,72.30
2018-07-31T05:47:57.754Z,69.70
2018-07-31T05:50:29.098Z,66.30
2018-07-31T05:53:00.349Z,64.70
2018-07-31T05:55:31.548Z,61.10
2018-07-31T05:58:03.010Z,59.40
2018-07-31T06:00:34.288Z,57.50
2018-07-31T06:03:05.765Z,56.90
2018-07-31T06:05:36.896Z,56.90
2018-07-31T06:08:08.403Z,55.10
2018-07-31T06:10:39.664Z,54.90
2018-07-31T06:15:41.662Z,55.50
2018-07-31T06:18:13.933Z,56.20
2018-07-31T06:20:45.237Z,56.40
2018-07-31T06:23:16.740Z,56.90
2018-07-31T06:25:48.057Z,57.10
2018-07-31T06:28:19.283Z,57.50
2018-07-31T06:30:50.560Z,58.10
2018-07-31T06:33:21.771Z,56.10
2018-07-31T06:35:53.552Z,54.30
2018-07-31T06:38:24.803Z,53.20
2018-07-31T06:43:26.560Z,54.00
2018-07-31T06:45:57.868Z,54.10
2018-07-31T06:48:29.279Z,55.00
2018-07-31T06:51:00.531Z,57.10
2018-07-31T06:53:31.742Z,57.70
2018-07-31T06:56:02.978Z,58.50
2018-07-31T06:58:34.349Z,59.60
2018-07-31T07:01:05.601Z,60.40
2018-07-31T07:03:37.116Z,58.60
2018-07-31T07:06:08.355Z,55.90
2018-07-31T07:08:39.684Z,56.40
2018-07-31T07:11:10.998Z,57.60
2018-07-31T07:13:42.202Z,58.80
2018-07-31T07:16:13.530Z,58.30
2018-07-31T07:18:46.239Z,60.00
2018-07-31T07:21:17.980Z,60.30
2018-07-31T07:23:50.808Z,61.00
2018-07-31T07:26:21.835Z,61.10
2018-07-31T07:28:52.886Z,60.80
2018-07-31T07:33:54.121Z,60.00
2018-07-31T07:36:25.182Z,60.00
2018-07-31T07:38:56.565Z,61.00
2018-07-31T07:41:27.433Z,61.50
2018-07-31T07:43:58.619Z,61.90
2018-07-31T07:46:29.684Z,61.90
2018-07-31T07:49:01.146Z,61.40
2018-07-31T07:51:32.370Z,62.20
2018-07-31T07:56:33.401Z,60.90
2018-07-31T07:59:04.932Z,59.90
2018-07-31T08:01:35.903Z,57.60
2018-07-31T08:04:07.003Z,56.60
2018-07-31T08:06:38.035Z,58.00
2018-07-31T08:09:11.048Z,58.80
2018-07-31T08:11:41.929Z,58.30
2018-07-31T08:14:12.994Z,58.00
2018-07-31T08:16:44.033Z,59.70
2018-07-31T08:19:15.111Z,59.00
2018-07-31T08:21:46.137Z,59.00
2018-07-31T08:24:17.627Z,58.40
2018-07-31T08:29:18.553Z,56.00
2018-07-31T08:31:51.764Z,56.10
2018-07-31T08:34:22.815Z,54.90
2018-07-31T08:39:25.044Z,55.00
2018-07-31T08:41:56.087Z,55.70
2018-07-31T08:44:27.080Z,56.70
2018-07-31T08:46:58.118Z,55.60
2018-07-31T08:49:29.170Z,55.40
2018-07-31T08:52:08.213Z,54.60
2018-07-31T08:54:39.597Z,53.70
2018-07-31T08:57:10.688Z,54.90
2018-07-31T08:59:41.597Z,55.70
2018-07-31T09:02:12.727Z,53.70
2018-07-31T09:04:43.661Z,54.30
2018-07-31T09:07:15.083Z,54.20
2018-07-31T09:09:45.991Z,52.00
2018-07-31T09:12:17.826Z,52.30
2018-07-31T09:14:48.984Z,51.20
2018-07-31T09:17:20.420Z,49.40
2018-07-31T09:19:51.671Z,51.30
2018-07-31T09:22:22.999Z,52.40
2018-07-31T09:28:40.764Z,51.70
2018-07-31T09:31:15.355Z,50.60
2018-07-31T09:33:48.567Z,50.10
2018-07-31T09:36:20.136Z,49.80
2018-07-31T09:38:52.342Z,51.30
2018-07-31T09:41:23.725Z,51.80
2018-07-31T09:46:58.361Z,53.70
2018-07-31T09:49:30.524Z,52.30
2018-07-31T09:52:01.867Z,53.10
2018-07-31T09:54:33.264Z,53.20
2018-07-31T09:59:40.855Z,51.80
2018-07-31T10:02:12.278Z,51.60
2018-07-31T10:04:43.396Z,51.20
2018-07-31T10:07:14.688Z,50.90
2018-07-31T10:09:45.965Z,48.00
2018-07-31T10:12:17.494Z,48.10
2018-07-31T10:14:48.719Z,46.00
2018-07-31T10:17:19.931Z,48.80
2018-07-31T10:19:51.235Z,45.30
2018-07-31T10:22:22.473Z,44.50
2018-07-31T10:24:53.896Z,45.30
2018-07-31T10:27:25.360Z,43.90
2018-07-31T10:29:56.782Z,42.60
2018-07-31T10:32:28.128Z,43.60
2018-07-31T10:34:59.496Z,44.70
2018-07-31T10:37:30.742Z,45.20
2018-07-31T10:40:02.383Z,42.60
2018-07-31T10:42:33.740Z,43.10
2018-07-31T10:45:05.124Z,41.20
2018-07-31T10:47:36.340Z,42.40
2018-07-31T10:50:07.865Z,42.30
2018-07-31T10:52:39.102Z,40.20
2018-07-31T10:55:10.627Z,40.70
2018-07-31T10:57:42.187Z,40.70
2018-07-31T11:00:13.658Z,39.80
2018-07-31T11:02:45.117Z,40.80
2018-07-31T11:05:16.525Z,41.00
2018-07-31T11:07:47.962Z,40.70
2018-07-31T11:10:19.402Z,38.60
2018-07-31T11:12:50.756Z,37.60
2018-07-31T11:15:22.152Z,40.00
2018-07-31T11:17:53.655Z,39.50
2018-07-31T11:20:24.985Z,40.10
2018-07-31T11:22:56.541Z,41.10
2018-07-31T11:25:27.780Z,41.00
2018-07-31T11:27:59.122Z,40.90
2018-07-31T11:30:30.400Z,41.20
2018-07-31T11:33:01.925Z,40.20
2018-07-31T11:35:33.289Z,40.50
2018-07-31T11:38:04.723Z,38.90
2018-07-31T11:40:35.910Z,38.40
2018-07-31T11:43:07.464Z,39.20
2018-07-31T11:45:38.781Z,40.90
2018-07-31T11:48:10.205Z,40.70
2018-07-31T11:50:41.458Z,40.80
2018-07-31T11:53:12.720Z,40.70
2018-07-31T11:55:43.970Z,40.50
2018-07-31T11:58:16.309Z,38.90
2018-07-31T12:00:47.466Z,40.40
2018-07-31T12:03:19.086Z,39.00
2018-07-31T12:05:50.578Z,38.40
2018-07-31T12:08:22.452Z,39.20
2018-07-31T12:10:53.779Z,38.20
2018-07-31T12:13:25.353Z,38.80
2018-07-31T12:15:56.662Z,39.00
2018-07-31T12:18:28.438Z,39.80
2018-07-31T12:20:59.729Z,39.30
2018-07-31T12:23:31.020Z,38.20
2018-07-31T12:26:02.658Z,36.70
2018-07-31T12:28:33.985Z,36.40
2018-07-31T12:31:05.779Z,36.50
2018-07-31T12:33:38.687Z,36.60
2018-07-31T12:36:10.084Z,36.80
2018-07-31T12:38:40.964Z,36.80
2018-07-31T12:41:12.110Z,37.20
2018-07-31T12:43:43.136Z,36.30
2018-07-31T12:46:14.399Z,36.10
2018-07-31T12:48:45.514Z,36.20
2018-07-31T12:51:17.073Z,36.60
2018-07-31T12:53:49.516Z,35.80
2018-07-31T12:56:20.597Z,39.50
2018-07-31T12:58:52.602Z,41.20
2018-07-31T13:01:23.698Z,42.90
2018-07-31T13:03:54.761Z,43.80
2018-07-31T13:08:56.005Z,44.80
2018-07-31T13:11:26.923Z,45.10
2018-07-31T13:13:57.925Z,42.70
2018-07-31T13:16:29.061Z,40.70
2018-07-31T13:19:00.149Z,40.80
2018-07-31T13:21:31.437Z,40.90
2018-07-31T13:24:02.741Z,40.20
2018-07-31T13:26:34.071Z,40.70
2018-07-31T13:29:05.402Z,40.30
2018-07-31T13:31:36.404Z,40.80
2018-07-31T13:34:07.375Z,41.20
2018-07-31T13:36:38.427Z,40.70
2018-07-31T13:39:11.493Z,39.80
2018-07-31T13:41:42.863Z,39.50
2018-07-31T13:44:14.063Z,40.30
2018-07-31T13:46:45.021Z,38.80
2018-07-31T13:49:16.101Z,38.80
2018-07-31T13:51:47.019Z,39.40
2018-07-31T13:54:18.245Z,39.60
2018-07-31T13:56:52.424Z,40.90
2018-07-31T13:59:23.439Z,40.40
2018-07-31T14:01:56.211Z,40.90
2018-07-31T14:04:27.581Z,40.40
2018-07-31T14:06:59.153Z,40.10
2018-07-31T14:09:30.243Z,40.10
2018-07-31T14:12:01.601Z,40.80
2018-07-31T14:14:32.758Z,40.20
2018-07-31T14:17:03.811Z,39.70
2018-07-31T14:19:34.929Z,39.00
2018-07-31T14:22:06.049Z,40.40
2018-07-31T14:24:37.193Z,40.50
2018-07-31T14:27:08.696Z,40.70
2018-07-31T14:29:40.291Z,41.20
2018-07-31T14:32:11.279Z,41.40
2018-07-31T14:34:42.413Z,41.10
2018-07-31T14:37:13.448Z,41.00
2018-07-31T14:39:44.487Z,41.10
2018-07-31T14:42:15.751Z,40.30
2018-07-31T14:44:46.940Z,40.50
2018-07-31T14:47:17.884Z,41.00
2018-07-31T14:49:49.412Z,41.80
2018-07-31T14:52:20.319Z,41.50
2018-07-31T14:54:51.583Z,41.30
2018-07-31T14:57:22.848Z,40.50
2018-07-31T14:59:54.225Z,41.40
2018-07-31T15:02:25.192Z,40.20
2018-07-31T15:04:56.562Z,41.50
2018-07-31T15:07:27.733Z,41.10
2018-07-31T15:09:59.010Z,40.10
2018-07-31T15:12:30.090Z,40.90
2018-07-31T15:15:01.500Z,40.90
2018-07-31T15:20:13.052Z,40.30
2018-07-31T15:22:44.514Z,40.40
2018-07-31T15:25:15.885Z,40.20
2018-07-31T15:27:47.427Z,40.30
2018-07-31T15:30:18.917Z,40.50
2018-07-31T15:32:50.432Z,40.10
2018-07-31T15:35:22.023Z,40.40
2018-07-31T15:37:53.862Z,40.80
2018-07-31T15:40:25.325Z,40.60
2018-07-31T15:42:57.649Z,40.10
2018-07-31T15:45:29.153Z,40.80
2018-07-31T15:48:01.047Z,41.20
2018-07-31T15:50:33.206Z,41.10
2018-07-31T15:53:04.669Z,41.10
2018-07-31T15:55:36.105Z,41.10
2018-07-31T15:58:07.581Z,41.10
2018-07-31T16:00:38.964Z,40.30
2018-07-31T16:03:10.427Z,40.70
2018-07-31T16:05:41.690Z,41.40
2018-07-31T16:08:14.016Z,41.20
2018-07-31T16:10:45.520Z,41.30
2018-07-31T16:13:17.872Z,41.70
2018-07-31T16:15:49.519Z,41.40
2018-07-31T16:18:20.915Z,41.40
2018-07-31T16:20:52.963Z,41.00
2018-07-31T16:23:24.305Z,40.60
2018-07-31T16:25:55.826Z,40.80
2018-07-31T16:28:42.073Z,41.40
2018-07-31T16:31:13.377Z,40.70
2018-07-31T16:33:44.932Z,41.70
2018-07-31T16:36:16.673Z,42.00
2018-07-31T16:38:50.309Z,42.00
2018-07-31T16:41:21.944Z,41.70
2018-07-31T16:43:54.149Z,41.10
2018-07-31T16:46:25.308Z,41.80
2018-07-31T16:48:56.797Z,41.30
2018-07-31T16:51:28.255Z,40.60
2018-07-31T16:53:59.528Z,39.80
2018-07-31T16:56:30.857Z,39.80
2018-07-31T16:59:02.292Z,40.30
2018-07-31T17:01:33.637Z,41.60
2018-07-31T17:04:05.007Z,41.60
2018-07-31T17:06:36.284Z,41.50
2018-07-31T17:09:09.377Z,41.10
2018-07-31T17:11:40.760Z,40.80
2018-07-31T17:14:12.105Z,41.50
2018-07-31T17:16:43.674Z,40.80
2018-07-31T17:19:14.991Z,40.80
2018-07-31T17:21:46.560Z,40.80
2018-07-31T17:24:18.089Z,41.10
2018-07-31T17:26:49.460Z,41.50
2018-07-31T17:29:20.962Z,41.50
2018-07-31T17:31:54.030Z,41.40
2018-07-31T17:34:25.293Z,41.90
2018-07-31T17:36:57.513Z,42.90
2018-07-31T17:39:28.908Z,43.30
2018-07-31T17:42:00.517Z,43.90
2018-07-31T17:44:31.751Z,44.10
2018-07-31T17:47:03.218Z,45.00
2018-07-31T17:49:34.655Z,45.00
2018-07-31T17:52:06.013Z,45.60
2018-07-31T17:54:37.356Z,45.50
2018-07-31T18:00:14.970Z,45.30
2018-07-31T18:02:46.262Z,45.40
2018-07-31T18:05:17.592Z,45.20
2018-07-31T18:07:48.725Z,45.30
2018-07-31T18:10:20.055Z,45.60
2018-07-31T18:12:51.399Z,45.10
2018-07-31T18:15:22.795Z,45.60
2018-07-31T18:17:54.483Z,45.50
2018-07-31T18:20:25.934Z,45.80
2018-07-31T18:22:58.191Z,46.40
2018-07-31T18:25:29.575Z,46.30
2018-07-31T18:28:00.828Z,47.10
2018-07-31T18:30:32.118Z,47.40
2018-07-31T18:33:03.369Z,47.40
2018-07-31T18:35:34.805Z,47.40
2018-07-31T18:38:06.335Z,47.40
2018-07-31T18:40:37.717Z,47.40
2018-07-31T18:43:09.021Z,47.40
2018-07-31T18:45:40.219Z,48.60
2018-07-31T18:48:11.802Z,48.60
2018-07-31T18:50:43.050Z,48.00
2018-07-31T18:53:15.284Z,48.30
2018-07-31T18:55:46.562Z,48.30
2018-07-31T18:58:18.528Z,48.30
2018-07-31T19:00:49.882Z,48.30
2018-07-31T19:03:21.573Z,48.20
2018-07-31T19:05:52.853Z,48.70
2018-07-31T19:08:24.302Z,49.80
2018-07-31T19:10:55.658Z,49.40
2018-07-31T19:13:26.938Z,49.20
2018-07-31T19:15:58.427Z,49.20
2018-07-31T19:18:29.756Z,49.80
2018-07-31T19:21:01.182Z,50.40
2018-07-31T19:23:32.417Z,50.50
2018-07-31T19:26:03.708Z,50.90
2018-07-31T19:28:35.117Z,51.60
2018-07-31T19:31:06.449Z,51.70
2018-07-31T19:33:37.729Z,51.50
2018-07-31T19:36:09.639Z,52.10
2018-07-31T19:38:40.904Z,52.30
2018-07-31T19:41:12.712Z,52.50
2018-07-31T19:43:44.097Z,52.40
2018-07-31T19:46:15.960Z,52.80
2018-07-31T19:51:18.181Z,53.20
2018-07-31T19:53:51.366Z,53.30
2018-07-31T19:56:22.763Z,53.30
2018-07-31T19:58:54.901Z,54.10
2018-07-31T20:01:26.527Z,54.30
2018-07-31T20:03:57.945Z,54.70
2018-07-31T20:06:29.332Z,54.50
2018-07-31T20:09:00.808Z,54.90
2018-07-31T20:11:32.178Z,55.20
2018-07-31T20:14:03.494Z,55.50
2018-07-31T20:16:34.892Z,55.40
2018-07-31T20:19:06.235Z,55.40
2018-07-31T20:21:37.645Z,55.40
2018-07-31T20:24:09.028Z,56.30
2018-07-31T20:26:40.387Z,56.10
2018-07-31T20:31:42.466Z,57.00
2018-07-31T20:36:44.105Z,56.80
2018-07-31T20:39:15.554Z,57.20
2018-07-31T20:41:46.914Z,57.60
2018-07-31T20:44:18.667Z,57.90
2018-07-31T20:46:49.983Z,58.30
2018-07-31T20:49:21.370Z,58.90
2018-07-31T20:51:54.222Z,59.00
2018-07-31T20:54:25.777Z,59.40
2018-07-31T20:56:58.273Z,60.40
2018-07-31T20:59:30.001Z,60.90
2018-07-31T21:02:01.385Z,60.90
2018-07-31T21:04:33.156Z,61.20
2018-07-31T21:09:35.073Z,61.70
2018-07-31T21:12:06.469Z,62.60
2018-07-31T21:14:37.786Z,62.60
2018-07-31T21:17:09.130Z,62.50
2018-07-31T21:19:40.369Z,62.50
2018-07-31T21:22:11.715Z,62.40
2018-07-31T21:24:42.901Z,62.50
2018-07-31T21:27:14.294Z,62.80
2018-07-31T21:29:45.800Z,63.20
2018-07-31T21:34:47.723Z,64.50
2018-07-31T21:37:19.126Z,64.70
2018-07-31T21:42:25.920Z,65.50
2018-07-31T21:44:57.095Z,65.60
2018-07-31T21:47:28.441Z,66.10
2018-07-31T21:49:59.556Z,66.00
2018-07-31T21:55:01.745Z,66.70
2018-07-31T21:57:32.697Z,66.70
2018-07-31T22:02:34.341Z,66.90
2018-07-31T22:07:36.459Z,67.00
2018-07-31T22:10:08.132Z,66.90
2018-07-31T22:12:39.742Z,67.30
2018-07-31T22:17:41.805Z,68.20
2018-07-31T22:20:13.123Z,68.80
2018-07-31T22:22:44.533Z,68.60
2018-07-31T22:25:15.935Z,69.00
2018-07-31T22:27:47.499Z,69.70
2018-07-31T22:30:18.816Z,70.00
2018-07-31T22:32:50.160Z,70.10
2018-07-31T22:35:21.490Z,69.70
2018-07-31T22:37:53.007Z,70.20
2018-07-31T22:40:24.205Z,70.30
2018-07-31T22:42:55.800Z,70.20
2018-07-31T22:45:27.144Z,70.50
2018-07-31T22:47:58.594Z,70.30
2018-07-31T22:50:31.342Z,70.40
2018-07-31T22:53:02.608Z,70.40
2018-07-31T22:55:33.964Z,70.40
2018-07-31T22:58:05.343Z,70.90
2018-07-31T23:00:36.666Z,71.30
2018-07-31T23:03:07.889Z,71.60
2018-07-31T23:05:39.313Z,72.00
2018-07-31T23:08:10.603Z,72.00
2018-07-31T23:10:42.106Z,72.00
2018-07-31T23:13:14.034Z,72.20
2018-07-31T23:15:45.483Z,71.60
2018-07-31T23:18:17.199Z,71.20
2018-07-31T23:20:49.035Z,70.90
2018-07-31T23:23:20.392Z,72.50
2018-07-31T23:25:51.839Z,73.00
2018-07-31T23:28:23.237Z,73.50
2018-07-31T23:33:24.931Z,73.10
2018-07-31T23:35:56.646Z,73.10
2018-07-31T23:38:28.864Z,72.40
2018-07-31T23:41:00.186Z,72.80
2018-07-31T23:43:31.502Z,73.90
2018-07-31T23:46:02.988Z,74.20
2018-07-31T23:48:34.398Z,73.80
2018-07-31T23:51:05.675Z,73.60
2018-07-31T23:53:37.074Z,73.80
2018-07-31T23:56:08.443Z,74.50
2018-07-31T23:58:39.919Z,74.10
